createdAt,value
2024-02-08T00:02:09.122Z,91386.88
2024-02-08T00:04:36.533Z,91383.84
2024-02-08T00:07:03.952Z,91385.72
2024-02-08T00:09:31.309Z,91391.75
2024-02-08T00:11:58.605Z,91382.72
2024-02-08T00:14:39.819Z,91387.25
2024-02-08T00:17:07.497Z,91382.38
2024-02-08T00:19:34.991Z,91385.38
2024-02-08T00:22:02.346Z,91374.09
2024-02-08T00:24:29.660Z,91377.88
2024-02-08T00:26:56.966Z,91378.22
2024-02-08T00:29:24.300Z,91377.09
2024-02-08T00:31:51.647Z,91373.75
2024-02-08T00:34:19.000Z,91373.38
2024-02-08T00:36:46.346Z,91376.00
2024-02-08T00:39:13.668Z,91383.88
2024-02-08T00:41:40.996Z,91371.09
2024-02-08T00:44:08.364Z,91367.31
2024-02-08T00:46:35.743Z,91367.69
2024-02-08T00:49:03.118Z,91374.50
2024-02-08T00:51:30.418Z,91364.34
2024-02-08T00:53:57.735Z,91361.72
2024-02-08T00:56:25.069Z,91361.34
2024-02-08T00:58:54.374Z,91356.44
2024-02-08T01:01:21.719Z,91360.19
2024-02-08T01:03:49.194Z,91360.94
2024-02-08T01:06:18.612Z,91358.72
2024-02-08T01:08:45.987Z,91368.44
2024-02-08T01:11:13.521Z,91360.88
2024-02-08T01:13:40.954Z,91362.00
2024-02-08T01:16:08.274Z,91371.34
2024-02-08T01:18:35.655Z,91375.13
2024-02-08T01:21:03.019Z,91362.75
2024-02-08T01:23:30.333Z,91361.25
2024-02-08T01:25:57.666Z,91362.41
2024-02-08T01:28:24.991Z,91364.28
2024-02-08T01:30:52.376Z,91365.44
2024-02-08T01:33:19.740Z,91359.44
2024-02-08T01:35:47.043Z,91362.47
2024-02-08T01:41:27.101Z,91363.94
2024-02-08T01:43:54.412Z,91364.34
2024-02-08T01:46:21.762Z,91356.44
2024-02-08T01:48:51.123Z,91349.66
2024-02-08T01:51:18.463Z,91348.91
2024-02-08T01:53:45.794Z,91354.56
2024-02-08T01:56:13.252Z,91356.09
2024-02-08T01:58:40.662Z,91344.41
2024-02-08T02:01:07.999Z,91345.16
2024-02-08T02:03:35.433Z,91349.25
2024-02-08T02:06:02.916Z,91338.78
2024-02-08T02:08:30.259Z,91345.56
2024-02-08T02:10:57.662Z,91340.28
2024-02-08T02:13:25.034Z,91339.16
2024-02-08T02:15:52.361Z,91327.47
2024-02-08T02:18:19.825Z,91327.50
2024-02-08T02:20:47.240Z,91326.00
2024-02-08T02:23:14.612Z,91317.31
2024-02-08T02:25:41.945Z,91326.75
2024-02-08T02:28:09.307Z,91321.50
2024-02-08T02:30:36.734Z,91322.63
2024-02-08T02:33:04.152Z,91318.44
2024-02-08T02:35:31.508Z,91318.47
2024-02-08T02:37:58.837Z,91310.19
2024-02-08T02:40:26.220Z,91313.59
2024-02-08T02:42:53.558Z,91308.72
2024-02-08T02:45:20.866Z,91307.59
2024-02-08T02:47:48.246Z,91298.16
2024-02-08T02:50:15.726Z,91295.19
2024-02-08T02:52:43.151Z,91293.28
2024-02-08T02:55:10.474Z,91293.25
2024-02-08T02:57:37.790Z,91289.09
2024-02-08T03:00:05.114Z,91289.09
2024-02-08T03:02:32.468Z,91290.25
2024-02-08T03:04:59.836Z,91292.53
2024-02-08T03:07:27.251Z,91292.56
2024-02-08T03:09:54.621Z,91286.53
2024-02-08T03:12:21.945Z,91284.97
2024-02-08T03:14:49.245Z,91283.06
2024-02-08T03:23:43.163Z,91277.13
2024-02-08T03:26:10.496Z,91266.66
2024-02-08T03:28:37.875Z,91273.41
2024-02-08T03:31:05.214Z,91261.78
2024-02-08T03:33:32.591Z,91270.38
2024-02-08T03:35:59.916Z,91265.91
2024-02-08T03:38:27.233Z,91255.75
2024-02-08T03:40:54.604Z,91257.25
2024-02-08T03:43:21.921Z,91247.47
2024-02-08T03:45:49.246Z,91248.97
2024-02-08T03:48:16.692Z,91237.34
2024-02-08T03:50:44.219Z,91238.09
2024-02-08T03:53:11.702Z,91238.47
2024-02-08T03:55:39.135Z,91245.22
2024-02-08T03:58:06.482Z,91248.59
2024-02-08T04:00:33.813Z,91256.88
2024-02-08T04:03:02.831Z,91256.13
2024-02-08T04:05:30.267Z,91262.88
2024-02-08T04:07:57.620Z,91263.63
2024-02-08T04:10:24.962Z,91255.00
2024-02-08T04:12:52.314Z,91256.13
2024-02-08T04:15:28.845Z,91259.88
2024-02-08T04:17:56.240Z,91247.09
2024-02-08T04:20:23.588Z,91243.72
2024-02-08T04:22:50.981Z,91246.00
2024-02-08T04:25:18.317Z,91251.63
2024-02-08T04:27:45.640Z,91246.75
2024-02-08T04:30:12.967Z,91238.09
2024-02-08T04:32:40.440Z,91239.59
2024-02-08T04:35:07.998Z,91226.81
2024-02-08T04:37:35.443Z,91229.44
2024-02-08T04:40:02.783Z,91238.84
2024-02-08T04:42:30.103Z,91239.22
2024-02-08T04:44:57.416Z,91245.22
2024-02-08T04:47:26.775Z,91245.63
2024-02-08T04:49:54.127Z,91242.97
2024-02-08T04:52:21.534Z,91248.25
2024-02-08T04:54:48.873Z,91233.97
2024-02-08T04:57:16.196Z,91224.91
2024-02-08T04:59:43.632Z,91218.94
2024-02-08T05:02:11.079Z,91220.81
2024-02-08T05:04:38.637Z,91211.75
2024-02-08T05:07:06.187Z,91213.28
2024-02-08T05:09:33.695Z,91225.66
2024-02-08T05:12:01.008Z,91217.75
2024-02-08T05:14:28.448Z,91219.63
2024-02-08T05:16:56.461Z,91221.88
2024-02-08T05:19:23.995Z,91223.81
2024-02-08T05:21:51.376Z,91215.50
2024-02-08T05:24:18.708Z,91213.31
2024-02-08T05:26:46.048Z,91212.56
2024-02-08T05:29:13.369Z,91214.44
2024-02-08T05:31:40.909Z,91211.41
2024-02-08T05:34:16.398Z,91217.03
2024-02-08T05:36:45.417Z,91209.50
2024-02-08T05:39:12.823Z,91219.31
2024-02-08T05:41:40.123Z,91208.03
2024-02-08T05:44:07.453Z,91208.38
2024-02-08T05:46:34.855Z,91207.63
2024-02-08T05:49:02.273Z,91205.34
2024-02-08T05:51:29.609Z,91183.56
2024-02-08T05:53:56.938Z,91186.59
2024-02-08T05:56:24.228Z,91183.63
2024-02-08T05:58:51.541Z,91179.84
2024-02-08T06:01:18.977Z,91183.19
2024-02-08T06:03:46.427Z,91185.53
2024-02-08T06:06:13.896Z,91191.47
2024-02-08T06:08:41.508Z,91187.00
2024-02-08T06:11:08.858Z,91177.22
2024-02-08T06:13:36.306Z,91188.13
2024-02-08T06:16:03.693Z,91191.09
2024-02-08T06:18:31.121Z,91185.81
2024-02-08T06:20:58.472Z,91192.63
2024-02-08T06:23:25.817Z,91183.22
2024-02-08T06:25:53.152Z,91188.09
2024-02-08T06:28:20.629Z,91196.03
2024-02-08T06:30:48.224Z,91195.28
2024-02-08T06:33:15.720Z,91197.50
2024-02-08T06:35:43.065Z,91203.91
2024-02-08T06:38:12.358Z,91204.69
2024-02-08T06:40:39.762Z,91214.03
2024-02-08T06:43:07.143Z,91206.16
2024-02-08T06:45:34.523Z,91211.75
2024-02-08T06:48:02.022Z,91217.78
2024-02-08T06:50:29.451Z,91211.78
2024-02-08T06:52:56.759Z,91215.53
2024-02-08T06:55:24.199Z,91199.41
2024-02-08T06:57:51.623Z,91199.00
2024-02-08T07:00:18.965Z,91200.06
2024-02-08T07:02:46.311Z,91196.72
2024-02-08T07:05:13.886Z,91191.50
2024-02-08T07:07:43.411Z,91189.25
2024-02-08T07:10:10.812Z,91207.66
2024-02-08T07:12:38.211Z,91200.50
2024-02-08T07:15:05.516Z,91196.78
2024-02-08T07:17:32.870Z,91188.50
2024-02-08T07:20:00.409Z,91200.91
2024-02-08T07:22:27.960Z,91204.25
2024-02-08T07:24:55.348Z,91200.88
2024-02-08T07:27:22.658Z,91206.16
2024-02-08T07:29:49.988Z,91205.41
2024-02-08T07:32:17.278Z,91211.03
2024-02-08T07:34:44.802Z,91210.25
2024-02-08T07:37:12.357Z,91210.69
2024-02-08T07:39:39.696Z,91220.41
2024-02-08T07:42:07.014Z,91215.09
2024-02-08T07:44:37.299Z,91226.78
2024-02-08T07:47:05.865Z,91227.19
2024-02-08T07:49:33.300Z,91223.81
2024-02-08T07:52:00.811Z,91217.81
2024-02-08T07:54:28.137Z,91220.78
2024-02-08T07:56:57.498Z,91227.56
2024-02-08T07:59:24.859Z,91224.16
2024-02-08T08:01:52.570Z,91222.69
2024-02-08T08:04:20.124Z,91216.66
2024-02-08T08:06:47.723Z,91226.44
2024-02-08T08:09:15.517Z,91233.97
2024-02-08T08:11:42.913Z,91226.84
2024-02-08T08:14:10.272Z,91226.44
2024-02-08T08:16:37.681Z,91229.81
2024-02-08T08:19:05.165Z,91226.44
2024-02-08T08:21:32.516Z,91230.56
2024-02-08T08:23:59.841Z,91233.94
2024-02-08T08:26:27.187Z,91238.06
2024-02-08T08:28:54.506Z,91231.34
2024-02-08T08:31:21.890Z,91230.97
2024-02-08T08:33:49.282Z,91230.56
2024-02-08T08:36:16.669Z,91242.56
2024-02-08T08:38:43.989Z,91230.91
2024-02-08T08:41:13.484Z,91233.13
2024-02-08T08:43:41.013Z,91239.16
2024-02-08T08:46:08.445Z,91227.84
2024-02-08T08:48:35.923Z,91222.53
2024-02-08T08:51:03.291Z,91225.88
2024-02-08T08:53:30.619Z,91230.47
2024-02-08T08:55:58.011Z,91227.50
2024-02-08T08:58:25.395Z,91226.28
2024-02-08T09:00:52.767Z,91226.97
2024-02-08T09:03:20.124Z,91227.06
2024-02-08T09:05:47.443Z,91222.97
2024-02-08T09:08:14.861Z,91226.25
2024-02-08T09:10:42.881Z,91222.41
2024-02-08T09:13:10.575Z,91228.75
2024-02-08T09:15:37.957Z,91228.69
2024-02-08T09:18:05.314Z,91230.34
2024-02-08T09:20:32.721Z,91222.75
2024-02-08T09:23:00.074Z,91222.25
2024-02-08T09:25:35.671Z,91229.56
2024-02-08T09:28:07.484Z,91226.81
2024-02-08T09:30:36.847Z,91226.97
2024-02-08T09:33:04.227Z,91222.72
2024-02-08T09:35:31.822Z,91231.88
2024-02-08T09:37:59.287Z,91218.66
2024-02-08T09:40:26.744Z,91233.75
2024-02-08T09:42:56.455Z,91224.88
2024-02-08T09:45:23.905Z,91230.25
2024-02-08T09:47:51.293Z,91237.81
2024-02-08T09:50:18.643Z,91242.31
2024-02-08T09:52:50.141Z,91240.47
2024-02-08T09:55:19.510Z,91242.66
2024-02-08T09:57:47.305Z,91223.78
2024-02-08T10:00:14.664Z,91225.34
2024-02-08T10:02:43.989Z,91221.53
2024-02-08T10:05:11.406Z,91225.53
2024-02-08T10:07:38.977Z,91227.44
2024-02-08T10:10:06.369Z,91235.28
2024-02-08T10:12:33.718Z,91235.16
2024-02-08T10:15:01.830Z,91236.50
2024-02-08T10:17:29.620Z,91241.47
2024-02-08T10:19:57.084Z,91237.75
2024-02-08T10:22:24.481Z,91236.22
2024-02-08T10:24:51.841Z,91235.50
2024-02-08T10:27:19.174Z,91230.94
2024-02-08T10:29:46.501Z,91230.09
2024-02-08T10:32:13.820Z,91208.50
2024-02-08T10:34:42.244Z,91208.84
2024-02-08T10:37:10.044Z,91203.41
2024-02-08T10:39:37.382Z,91200.81
2024-02-08T10:42:04.699Z,91191.63
2024-02-08T10:44:32.029Z,91191.94
2024-02-08T10:47:11.576Z,91184.47
2024-02-08T10:49:39.082Z,91182.88
2024-02-08T10:52:06.619Z,91170.31
2024-02-08T10:54:36.763Z,91172.66
2024-02-08T10:57:05.466Z,91164.78
2024-02-08T10:59:32.794Z,91163.53
2024-02-08T11:02:00.292Z,91154.66
2024-02-08T11:04:27.732Z,91152.53
2024-02-08T11:06:55.238Z,91143.81
2024-02-08T11:09:22.606Z,91132.91
2024-02-08T11:11:49.929Z,91131.81
2024-02-08T11:14:17.276Z,91125.59
2024-02-08T11:16:44.634Z,91117.69
2024-02-08T11:19:12.083Z,91120.78
2024-02-08T11:21:39.452Z,91118.38
2024-02-08T11:24:06.778Z,91112.53
2024-02-08T11:26:34.275Z,91106.75
2024-02-08T11:29:01.761Z,91101.34
2024-02-08T11:31:29.187Z,91098.84
2024-02-08T11:33:56.830Z,91099.66
2024-02-08T11:36:24.348Z,91099.03
2024-02-08T11:38:51.671Z,91095.97
2024-02-08T11:41:18.995Z,91084.59
2024-02-08T11:43:46.358Z,91083.53
2024-02-08T11:46:13.730Z,91067.53
2024-02-08T11:48:41.233Z,91065.69
2024-02-08T11:51:08.692Z,91055.59
2024-02-08T11:53:36.038Z,91061.56
2024-02-08T11:56:03.357Z,91056.75
2024-02-08T11:58:30.754Z,91048.56
2024-02-08T12:00:58.257Z,91046.13
2024-02-08T12:03:25.708Z,91045.59
2024-02-08T12:05:53.042Z,91046.94
2024-02-08T12:08:21.412Z,91041.19
2024-02-08T12:10:49.838Z,91041.09
2024-02-08T12:13:17.273Z,91039.50
2024-02-08T12:15:44.652Z,91037.34
2024-02-08T12:18:12.117Z,91035.13
2024-02-08T12:20:39.511Z,91028.94
2024-02-08T12:23:06.819Z,91025.81
2024-02-08T12:25:34.244Z,91030.47
2024-02-08T12:28:01.582Z,91024.72
2024-02-08T12:30:28.923Z,91014.28
2024-02-08T12:32:56.274Z,91000.16
2024-02-08T12:35:23.660Z,91004.75
2024-02-08T12:37:50.981Z,90996.38
2024-02-08T12:40:18.441Z,90989.38
2024-02-08T12:42:45.794Z,90982.72
2024-02-08T12:45:13.152Z,90971.50
2024-02-08T12:47:40.508Z,90962.13
2024-02-08T12:50:14.991Z,90956.53
2024-02-08T12:52:49.070Z,90948.34
2024-02-08T12:55:16.414Z,90949.84
2024-02-08T12:57:43.796Z,90939.28
2024-02-08T13:00:11.104Z,90924.69
2024-02-08T13:02:38.408Z,90915.81
2024-02-08T13:05:06.088Z,90919.44
2024-02-08T13:07:36.810Z,90919.75
2024-02-08T13:10:06.023Z,90914.72
2024-02-08T13:12:33.412Z,90890.28
2024-02-08T13:15:00.732Z,90895.44
2024-02-08T13:17:28.167Z,90883.66
2024-02-08T13:19:55.652Z,90881.06
2024-02-08T13:22:23.033Z,90891.41
2024-02-08T13:24:50.915Z,90880.91
2024-02-08T13:27:18.243Z,90886.94
2024-02-08T13:29:45.553Z,90883.78
2024-02-08T13:32:12.874Z,90880.94
2024-02-08T13:34:40.257Z,90872.00
2024-02-08T13:37:07.659Z,90865.81
2024-02-08T13:39:34.996Z,90847.03
2024-02-08T13:42:02.399Z,90852.31
2024-02-08T13:44:29.816Z,90844.38
2024-02-08T13:46:57.240Z,90842.63
2024-02-08T13:49:24.741Z,90834.06
2024-02-08T13:51:52.256Z,90816.38
2024-02-08T13:54:19.616Z,90812.03
2024-02-08T13:56:46.975Z,90807.81
2024-02-08T13:59:14.342Z,90802.88
2024-02-08T14:01:41.803Z,90801.75
2024-02-08T14:04:09.257Z,90792.66
2024-02-08T14:06:36.649Z,90794.44
2024-02-08T14:09:03.961Z,90787.75
2024-02-08T14:11:31.324Z,90784.84
2024-02-08T14:13:58.648Z,90780.16
2024-02-08T14:16:25.982Z,90778.28
2024-02-08T14:18:53.560Z,90761.53
2024-02-08T14:21:21.145Z,90764.03
2024-02-08T14:23:48.442Z,90770.72
2024-02-08T14:26:15.761Z,90766.16
2024-02-08T14:28:43.097Z,90756.50
2024-02-08T14:31:10.489Z,90757.25
2024-02-08T14:33:38.650Z,90753.75
2024-02-08T14:36:05.976Z,90757.03
2024-02-08T14:38:33.309Z,90749.41
2024-02-08T14:41:00.617Z,90743.50
2024-02-08T14:43:27.935Z,90738.56
2024-02-08T14:45:55.288Z,90740.72
2024-02-08T14:48:22.869Z,90737.00
2024-02-08T14:50:50.173Z,90731.16
2024-02-08T14:53:17.485Z,90725.13
2024-02-08T14:55:44.821Z,90718.50
2024-02-08T14:58:12.183Z,90715.41
2024-02-08T15:00:39.539Z,90720.31
2024-02-08T15:03:06.922Z,90708.31
2024-02-08T15:05:34.372Z,90708.94
2024-02-08T15:08:01.753Z,90697.50
2024-02-08T15:10:29.107Z,90690.97
2024-02-08T15:12:56.443Z,90688.28
2024-02-08T15:15:23.895Z,90685.69
2024-02-08T15:17:51.236Z,90683.19
2024-02-08T15:20:18.615Z,90687.94
2024-02-08T15:22:46.122Z,90673.16
2024-02-08T15:25:14.594Z,90671.00
2024-02-08T15:27:41.959Z,90674.44
2024-02-08T15:30:09.293Z,90669.34
2024-02-08T15:32:36.626Z,90658.91
2024-02-08T15:35:04.086Z,90650.06
2024-02-08T15:37:31.521Z,90643.09
2024-02-08T15:39:58.966Z,90637.66
2024-02-08T15:42:26.291Z,90637.00
2024-02-08T15:44:54.561Z,90630.16
2024-02-08T15:47:22.411Z,90619.22
2024-02-08T15:49:49.885Z,90621.91
2024-02-08T15:52:17.749Z,90615.06
2024-02-08T15:54:45.725Z,90611.84
2024-02-08T15:57:13.834Z,90609.84
2024-02-08T15:59:41.277Z,90600.66
2024-02-08T16:02:08.792Z,90593.47
2024-02-08T16:04:36.254Z,90590.13
2024-02-08T16:07:03.763Z,90586.66
2024-02-08T16:09:31.200Z,90577.34
2024-02-08T16:11:58.544Z,90580.09
2024-02-08T16:14:25.857Z,90579.44
2024-02-08T16:16:53.171Z,90568.03
2024-02-08T16:19:20.680Z,90565.56
2024-02-08T16:21:48.073Z,90562.50
2024-02-08T16:24:15.448Z,90551.91
2024-02-08T16:26:42.809Z,90553.81
2024-02-08T16:29:10.197Z,90557.09
2024-02-08T16:31:37.698Z,90551.69
2024-02-08T16:34:05.122Z,90547.53
2024-02-08T16:36:32.518Z,90547.00
2024-02-08T16:39:01.800Z,90537.56
2024-02-08T16:41:29.129Z,90538.94
2024-02-08T16:43:56.445Z,90537.97
2024-02-08T16:46:24.114Z,90532.16
2024-02-08T16:48:51.484Z,90535.28
2024-02-08T16:51:18.843Z,90526.25
2024-02-08T16:53:46.219Z,90509.78
2024-02-08T16:56:13.545Z,90509.13
2024-02-08T16:58:40.921Z,90515.41
2024-02-08T17:01:08.363Z,90511.25
2024-02-08T17:03:35.719Z,90515.47
2024-02-08T17:06:03.149Z,90513.22
2024-02-08T17:08:30.476Z,90509.19
2024-02-08T17:10:57.810Z,90509.72
2024-02-08T17:13:46.546Z,90511.03
2024-02-08T17:16:33.142Z,90505.84
2024-02-08T17:19:19.803Z,90513.78
2024-02-08T17:22:05.846Z,90509.97
2024-02-08T17:24:52.170Z,90507.47
2024-02-08T17:27:37.881Z,90503.34
2024-02-08T17:30:23.991Z,90504.44
2024-02-08T17:33:09.682Z,90504.72
2024-02-08T17:35:58.004Z,90499.56
2024-02-08T17:38:44.084Z,90493.09
2024-02-08T17:41:30.488Z,90480.94
2024-02-08T17:44:16.634Z,90482.94
2024-02-08T17:47:02.335Z,90478.38
2024-02-08T17:49:48.675Z,90467.47
2024-02-08T17:52:34.477Z,90470.81
2024-02-08T17:55:20.896Z,90462.84
2024-02-08T17:58:06.690Z,90456.72
2024-02-08T18:00:52.694Z,90464.66
2024-02-08T18:03:38.886Z,90468.22
2024-02-08T18:06:25.477Z,90450.66
2024-02-08T18:09:11.413Z,90450.63
2024-02-08T18:11:59.326Z,90446.63
2024-02-08T18:14:45.286Z,90441.31
2024-02-08T18:17:31.472Z,90427.13
2024-02-08T18:20:17.392Z,90420.66
2024-02-08T18:23:04.091Z,90433.16
2024-02-08T18:25:49.984Z,90430.06
2024-02-08T18:28:36.131Z,90430.31
2024-02-08T18:31:21.814Z,90435.06
2024-02-08T18:34:08.025Z,90430.94
2024-02-08T18:36:54.046Z,90425.97
2024-02-08T18:39:40.332Z,90418.72
2024-02-08T18:42:26.089Z,90410.88
2024-02-08T18:45:12.115Z,90405.50
2024-02-08T18:47:57.874Z,90401.50
2024-02-08T18:50:44.381Z,90401.59
2024-02-08T18:53:30.177Z,90404.03
2024-02-08T18:56:16.456Z,90392.50
2024-02-08T18:59:04.303Z,90401.59
2024-02-08T19:01:57.369Z,90394.72
2024-02-08T19:04:46.858Z,90388.88
2024-02-08T19:07:33.139Z,90397.81
2024-02-08T19:10:19.021Z,90389.00
2024-02-08T19:13:05.087Z,90384.53
2024-02-08T19:15:50.959Z,90377.97
2024-02-08T19:18:37.102Z,90381.38
2024-02-08T19:21:22.893Z,90392.63
2024-02-08T19:24:09.113Z,90379.69
2024-02-08T19:26:54.936Z,90394.63
2024-02-08T19:29:40.811Z,90395.47
2024-02-08T19:32:26.638Z,90392.91
2024-02-08T19:35:12.946Z,90380.31
2024-02-08T19:37:59.015Z,90381.25
2024-02-08T19:40:45.358Z,90366.84
2024-02-08T19:43:31.320Z,90368.44
2024-02-08T19:46:17.306Z,90364.19
2024-02-08T19:49:03.191Z,90360.50
2024-02-08T19:51:49.255Z,90368.94
2024-02-08T19:54:35.045Z,90356.66
2024-02-08T19:57:21.427Z,90351.50
2024-02-08T20:00:07.397Z,90351.59
2024-02-08T20:02:54.085Z,90354.03
2024-02-08T20:05:40.742Z,90345.69
2024-02-08T20:08:27.032Z,90350.88
2024-02-08T20:11:12.832Z,90342.19
2024-02-08T20:13:58.794Z,90337.22
2024-02-08T20:16:44.712Z,90335.09
2024-02-08T20:19:31.103Z,90332.69
2024-02-08T20:22:16.847Z,90339.13
2024-02-08T20:25:03.131Z,90341.56
2024-02-08T20:27:48.932Z,90363.66
2024-02-08T20:30:34.873Z,90350.66
2024-02-08T20:33:20.878Z,90350.47
2024-02-08T20:36:07.120Z,90351.00
2024-02-08T20:38:52.816Z,90350.34
2024-02-08T20:41:39.230Z,90352.56
2024-02-08T20:44:24.914Z,90355.44
2024-02-08T20:47:11.167Z,90348.53
2024-02-08T20:49:57.755Z,90343.88
2024-02-08T20:52:43.776Z,90343.09
2024-02-08T20:55:29.582Z,90342.72
2024-02-08T20:58:16.198Z,90334.25
2024-02-08T21:01:02.234Z,90324.03
2024-02-08T21:03:50.212Z,90314.22
2024-02-08T21:06:35.981Z,90311.91
2024-02-08T21:09:23.885Z,90319.53
2024-02-08T21:12:09.581Z,90317.44
2024-02-08T21:14:55.737Z,90313.84
2024-02-08T21:17:41.539Z,90307.19
2024-02-08T21:20:27.796Z,90309.09
2024-02-08T21:23:13.524Z,90296.59
2024-02-08T21:25:59.894Z,90283.25
2024-02-08T21:28:45.812Z,90286.13
2024-02-08T21:31:31.970Z,90271.19
2024-02-08T21:34:19.885Z,90269.41
2024-02-08T21:37:06.213Z,90263.13
2024-02-08T21:39:51.837Z,90265.22
2024-02-08T21:42:38.080Z,90271.47
2024-02-08T21:45:23.781Z,90253.91
2024-02-08T21:48:10.082Z,90257.41
2024-02-08T21:50:55.949Z,90262.19
2024-02-08T21:53:42.188Z,90241.84
2024-02-08T21:56:27.930Z,90253.06
2024-02-08T21:59:14.176Z,90243.97
2024-02-08T22:01:59.892Z,90246.84
2024-02-08T22:04:46.131Z,90239.63
2024-02-08T22:07:31.948Z,90236.25
2024-02-08T22:10:18.070Z,90243.13
2024-02-08T22:13:05.148Z,90242.94
2024-02-08T22:15:51.536Z,90231.63
2024-02-08T22:18:37.206Z,90222.50
2024-02-08T22:21:23.331Z,90219.84
2024-02-08T22:24:10.403Z,90222.91
2024-02-08T22:26:56.926Z,90217.25
2024-02-08T22:29:43.095Z,90212.94
2024-02-08T22:32:28.823Z,90216.13
2024-02-08T22:35:17.409Z,90225.59
2024-02-08T22:38:03.410Z,90219.56
2024-02-08T22:40:49.474Z,90224.00
2024-02-08T22:43:35.290Z,90214.81
2024-02-08T22:46:21.718Z,90210.94
2024-02-08T22:49:09.328Z,90210.47
2024-02-08T22:51:55.614Z,90205.75
2024-02-08T22:54:41.494Z,90207.97
2024-02-08T22:57:27.649Z,90208.03
2024-02-08T23:00:13.404Z,90210.56
2024-02-08T23:02:59.529Z,90208.44
2024-02-08T23:05:45.234Z,90209.78
2024-02-08T23:08:31.468Z,90194.47
2024-02-08T23:11:16.924Z,90205.34
2024-02-08T23:14:03.064Z,90199.78
2024-02-08T23:16:49.397Z,90201.38
2024-02-08T23:19:35.101Z,90208.81
2024-02-08T23:22:22.077Z,90198.56
2024-02-08T23:25:08.706Z,90199.91
2024-02-08T23:27:54.606Z,90211.16
2024-02-08T23:30:40.340Z,90200.75
2024-02-08T23:33:26.613Z,90196.97
2024-02-08T23:36:12.500Z,90203.00
2024-02-08T23:38:58.806Z,90200.56
2024-02-08T23:41:44.426Z,90200.81
2024-02-08T23:44:30.697Z,90201.41
2024-02-08T23:47:16.503Z,90212.72
2024-02-08T23:50:02.667Z,90214.75
2024-02-08T23:52:48.483Z,90209.78
2024-02-08T23:55:34.763Z,90205.53
2024-02-08T23:58:20.525Z,90178.34
